Time;durP1;ratioP1;P1;durP2;ratioP2;P2;SDS_P1;SDS_P2;PMS_P1;PMS_P2;Temp;Humidity;BMP_temperature;BMP_pressure;BME280_temperature;BME280_humidity;BME280_pressure;Samples;Min_cycle;Max_cycle;Signal;HPM_P1;HPM_P2
2021/12/21 00:00:12;;;;;;;19.97;9.43;;;;;;;1.92;54.38;101686.41;10326154;28;20277;-82
2021/12/21 00:05:20;;;;;;;24.23;9.13;;;;;;;1.79;55.10;101693.75;10336615;28;20232;-83
2021/12/21 00:10:25;;;;;;;61.47;10.77;;;;;;;1.45;55.48;101680.50;10319318;28;20221;-82
2021/12/21 00:15:40;;;;;;;38.70;9.43;;;;;;;1.71;55.19;101671.06;10332242;28;20203;-84
2021/12/21 00:25:47;;;;;;;112.03;13.83;;;;;;;1.92;55.19;101669.78;10324431;28;20488;-82
2021/12/21 00:30:49;;;;;;;62.80;11.17;;;;;;;1.68;55.69;101669.59;10341041;28;20226;-81
2021/12/21 00:35:52;;;;;;;37.33;10.47;;;;;;;1.97;54.55;101665.22;10344554;28;20673;-83
2021/12/21 00:40:54;;;;;;;76.50;11.77;;;;;;;1.79;54.87;101670.78;10335894;28;20670;-84
2021/12/21 00:45:56;;;;;;;18.93;9.23;;;;;;;2.05;54.72;101664.06;10334769;28;20210;-83
2021/12/21 00:51:02;;;;;;;33.30;10.23;;;;;;;1.68;55.56;101663.22;10314965;28;20297;-81
2021/12/21 00:56:05;;;;;;;23.93;9.17;;;;;;;1.93;54.50;101669.53;10342815;28;20205;-82
2021/12/21 01:01:07;;;;;;;18.50;8.17;;;;;;;2.09;54.46;101670.81;10346286;28;20209;-79
2021/12/21 01:06:17;;;;;;;18.17;8.43;;;;;;;1.95;54.67;101663.75;10350697;28;20248;-79
2021/12/21 01:11:31;;;;;;;23.27;9.50;;;;;;;1.80;54.83;101653.06;10345792;28;20217;-80
2021/12/21 01:16:47;;;;;;;36.60;10.30;;;;;;;1.75;54.59;101652.91;10309841;28;20215;-82
2021/12/21 01:22:12;;;;;;;16.83;7.40;;;;;;;1.74;54.89;101643.75;10303261;28;20241;-82
2021/12/21 01:27:30;;;;;;;50.63;8.80;;;;;;;1.62;54.89;101653.06;10332789;28;20260;-82
2021/12/21 01:38:50;;;;;;;30.83;8.33;;;;;;;1.77;54.56;101648.00;10338382;28;20202;-80
2021/12/21 01:53:35;;;;;;;11.83;6.83;;;;;;;1.23;55.69;101638.56;10341341;28;20237;-80
2021/12/21 01:58:39;;;;;;;13.73;7.37;;;;;;;1.24;55.68;101634.72;10313849;28;20211;-83
2021/12/21 02:03:47;;;;;;;13.77;7.47;;;;;;;1.36;55.20;101629.28;10284339;28;20219;-82
2021/12/21 02:08:50;;;;;;;14.93;6.50;;;;;;;1.06;56.72;101635.53;10300238;28;20190;-81
2021/12/21 02:13:52;;;;;;;22.53;7.50;;;;;;;1.03;57.27;101638.75;10335036;28;20222;-82
2021/12/21 02:19:14;;;;;;;20.50;7.40;;;;;;;0.92;57.00;101636.72;10325162;28;20272;-80
2021/12/21 02:24:21;;;;;;;12.47;7.37;;;;;;;1.12;56.34;101634.63;10310937;28;20256;-82
2021/12/21 02:29:29;;;;;;;16.97;7.33;;;;;;;0.95;56.27;101640.97;10338986;28;20232;-81
2021/12/21 02:34:31;;;;;;;15.50;7.33;;;;;;;1.03;56.83;101637.91;10330281;28;20225;-81
2021/12/21 02:39:34;;;;;;;14.93;7.53;;;;;;;0.94;56.57;101640.13;10316163;28;20214;-83
2021/12/21 02:44:38;;;;;;;14.47;7.73;;;;;;;1.01;56.27;101629.81;10363905;28;20256;-85
2021/12/21 02:49:40;;;;;;;21.60;7.00;;;;;;;0.59;56.87;101630.63;10337624;28;20256;-82
2021/12/21 02:54:42;;;;;;;23.80;7.80;;;;;;;0.97;56.10;101634.13;10318097;28;20751;-82
2021/12/21 02:59:44;;;;;;;106.67;11.43;;;;;;;0.41;56.80;101635.00;10319937;28;20214;-81
2021/12/21 03:04:50;;;;;;;28.43;8.23;;;;;;;0.87;57.24;101630.19;10297520;28;20512;-83
2021/12/21 03:09:59;;;;;;;24.17;7.63;;;;;;;0.84;56.09;101625.94;10335413;28;20201;-84
2021/12/21 03:15:01;;;;;;;15.20;7.60;;;;;;;0.89;56.25;101625.25;10337198;28;20218;-82
2021/12/21 03:20:04;;;;;;;10.30;6.83;;;;;;;0.79;56.59;101623.00;10362013;28;20211;-81
2021/12/21 03:25:07;;;;;;;11.13;6.93;;;;;;;0.52;57.40;101615.97;10304277;28;20304;-81
2021/12/21 03:30:12;;;;;;;12.60;7.10;;;;;;;0.99;55.77;101620.94;10330336;28;20611;-82
2021/12/21 03:35:15;;;;;;;11.20;7.03;;;;;;;0.96;56.35;101620.53;10335596;28;20218;-85
2021/12/21 03:40:17;;;;;;;24.27;7.17;;;;;;;0.36;56.97;101617.41;10368932;28;20268;-81
2021/12/21 03:45:19;;;;;;;13.07;6.90;;;;;;;1.03;55.79;101611.06;10320259;28;20284;-83
2021/12/21 03:50:22;;;;;;;8.83;6.70;;;;;;;1.04;55.90;101610.00;10335378;28;20202;-82
2021/12/21 03:55:24;;;;;;;10.13;7.10;;;;;;;0.50;57.21;101601.53;10336692;28;20245;-84
2021/12/21 04:00:28;;;;;;;11.07;6.40;;;;;;;0.55;56.60;101610.00;10336544;28;20496;-82
2021/12/21 04:05:30;;;;;;;10.17;7.13;;;;;;;0.84;56.19;101617.66;10301607;28;20229;-83
2021/12/21 04:10:32;;;;;;;10.50;6.43;;;;;;;0.84;56.02;101620.41;10335809;28;20260;-83
2021/12/21 04:15:42;;;;;;;12.43;7.83;;;;;;;1.25;55.00;101617.06;10330761;28;20236;-82
2021/12/21 04:20:44;;;;;;;12.80;6.70;;;;;;;0.69;56.75;101617.13;10280699;28;20206;-80
2021/12/21 04:25:46;;;;;;;9.50;6.87;;;;;;;0.71;57.04;101612.22;10283768;28;20206;-82
2021/12/21 04:30:49;;;;;;;10.67;7.40;;;;;;;0.61;56.54;101607.22;10350501;28;20218;-83
2021/12/21 04:35:51;;;;;;;11.70;6.73;;;;;;;0.44;57.30;101609.66;10343103;28;20248;-83
2021/12/21 04:41:01;;;;;;;10.87;6.43;;;;;;;0.42;56.17;101606.28;10355622;28;20283;-80
2021/12/21 04:46:04;;;;;;;9.53;6.07;;;;;;;0.23;56.18;101612.78;10303013;28;20195;-81
2021/12/21 04:51:07;;;;;;;13.20;6.13;;;;;;;0.50;55.21;101601.53;10318071;28;20207;-81
2021/12/21 04:56:09;;;;;;;9.73;6.00;;;;;;;0.31;54.79;101600.63;10315841;28;20209;-81
2021/12/21 05:01:12;;;;;;;8.27;5.87;;;;;;;0.27;55.08;101582.78;10309740;28;20241;-81
2021/12/21 05:06:15;;;;;;;8.40;6.00;;;;;;;0.47;54.47;101588.19;10319033;28;20265;-81
2021/12/21 05:11:19;;;;;;;6.67;5.70;;;;;;;0.38;54.67;101582.91;10291331;28;20213;-82
2021/12/21 05:16:21;;;;;;;7.70;5.27;;;;;;;0.50;53.91;101588.56;10352637;28;20206;-80
2021/12/21 05:21:23;;;;;;;7.33;5.07;;;;;;;0.50;54.14;101593.25;10343982;28;20221;-81
2021/12/21 05:26:26;;;;;;;9.23;5.63;;;;;;;0.64;54.01;101594.81;10344910;28;20599;-81
2021/12/21 05:31:28;;;;;;;7.27;5.77;;;;;;;0.19;54.67;101597.72;10338356;28;20292;-82
2021/12/21 05:36:31;;;;;;;8.63;5.40;;;;;;;0.50;53.87;101591.31;10340353;28;20599;-82
2021/12/21 05:41:54;;;;;;;9.30;5.27;;;;;;;0.34;53.75;101589.13;10318342;28;20199;-81
2021/12/21 05:46:57;;;;;;;7.77;5.20;;;;;;;0.24;54.04;101597.88;10342594;28;20220;-82
2021/12/21 05:51:59;;;;;;;9.80;6.63;;;;;;;0.21;55.12;101605.78;10339611;28;20558;-83
2021/12/21 05:57:02;;;;;;;10.97;6.83;;;;;;;0.47;53.88;101599.25;10336252;28;20202;-81
2021/12/21 06:02:05;;;;;;;8.73;6.20;;;;;;;0.37;52.86;101603.31;10367205;28;20225;-83
2021/12/21 06:07:07;;;;;;;7.50;5.50;;;;;;;0.22;54.15;101610.25;10338668;28;20197;-81
2021/12/21 06:12:18;;;;;;;8.97;6.33;;;;;;;0.51;54.99;101600.47;10337740;28;20506;-80
2021/12/21 06:28:05;;;;;;;10.57;6.70;;;;;;;0.60;55.08;101615.72;10358267;28;20198;-83
2021/12/21 06:33:08;;;;;;;9.43;6.93;;;;;;;0.27;55.85;101622.31;10321893;28;20503;-82
2021/12/21 06:38:10;;;;;;;12.80;7.83;;;;;;;0.36;55.96;101620.97;10326230;28;20206;-82
2021/12/21 06:43:15;;;;;;;11.90;7.83;;;;;;;0.51;55.30;101614.28;10325790;28;20199;-81
2021/12/21 06:53:39;;;;;;;10.53;6.97;;;;;;;0.32;55.70;101611.47;10328444;28;20546;-83
2021/12/21 06:58:42;;;;;;;14.53;7.77;;;;;;;0.42;55.04;101608.19;10326405;28;20252;-83
2021/12/21 07:03:45;;;;;;;11.40;7.23;;;;;;;0.09;55.68;101620.31;10321373;28;20218;-81
2021/12/21 07:09:05;;;;;;;12.07;7.73;;;;;;;0.03;56.08;101617.59;10325941;28;20260;-83
2021/12/21 07:19:29;;;;;;;12.17;8.17;;;;;;;0.21;55.34;101622.38;10326918;28;20198;-84
2021/12/21 07:24:31;;;;;;;14.03;8.57;;;;;;;-0.29;56.05;101623.00;10312605;28;20225;-83
2021/12/21 07:29:34;;;;;;;13.37;8.30;;;;;;;0.11;55.22;101620.06;10357634;28;20233;-83
2021/12/21 07:34:36;;;;;;;11.13;7.73;;;;;;;0.03;54.65;101625.88;10319474;28;20234;-84
2021/12/21 07:39:39;;;;;;;11.40;6.80;;;;;;;-0.01;55.43;101613.56;10308968;28;20610;-84
2021/12/21 07:44:57;;;;;;;7.97;6.10;;;;;;;-0.01;54.00;101628.22;10333096;28;20244;-83
2021/12/21 07:49:59;;;;;;;7.20;5.87;;;;;;;-0.22;54.22;101633.19;10301242;28;20210;-82
2021/12/21 07:55:03;;;;;;;7.43;5.43;;;;;;;-0.22;53.31;101627.66;10314095;28;20214;-84
2021/12/21 08:00:06;;;;;;;9.87;5.43;;;;;;;-0.14;53.85;101636.53;10316270;28;20206;-81
2021/12/21 08:05:16;;;;;;;7.63;5.10;;;;;;;-0.15;53.64;101639.50;10360627;28;20690;-84
2021/12/21 08:10:40;;;;;;;8.83;5.80;;;;;;;-0.09;53.43;101634.00;10337226;28;20259;-83
2021/12/21 08:15:43;;;;;;;11.50;5.67;;;;;;;-0.06;53.85;101646.53;10366213;28;20526;-84
2021/12/21 08:20:45;;;;;;;8.27;5.77;;;;;;;-0.18;54.18;101651.03;10333167;28;20316;-84
2021/12/21 08:25:47;;;;;;;10.67;6.33;;;;;;;-0.27;55.05;101642.97;10315660;28;20213;-82
2021/12/21 08:30:50;;;;;;;9.10;6.50;;;;;;;0.14;53.88;101644.50;10330265;28;20550;-85
2021/12/21 08:35:56;;;;;;;11.10;6.60;;;;;;;-0.09;54.41;101638.69;10319519;28;20226;-82
2021/12/21 08:41:00;;;;;;;8.67;6.50;;;;;;;-0.16;55.24;101637.84;10335063;28;20215;-82
2021/12/21 08:46:03;;;;;;;9.77;6.20;;;;;;;0.42;54.24;101633.94;10328916;28;20491;-84
2021/12/21 08:51:05;;;;;;;8.70;6.70;;;;;;;0.39;54.24;101631.59;10302004;28;20210;-81
2021/12/21 08:56:08;;;;;;;7.93;5.87;;;;;;;0.42;54.05;101638.59;10319528;28;20222;-83
2021/12/21 09:01:10;;;;;;;7.83;6.20;;;;;;;0.67;54.10;101630.34;10320018;28;20293;-83
2021/12/21 09:06:12;;;;;;;11.20;6.30;;;;;;;0.42;55.49;101642.22;10317110;28;20574;-84
2021/12/21 09:11:15;;;;;;;11.27;5.70;;;;;;;0.59;54.04;101637.00;10336713;28;20202;-82
2021/12/21 09:16:17;;;;;;;11.07;5.93;;;;;;;0.89;53.03;101648.22;10327712;28;20716;-82
2021/12/21 09:21:19;;;;;;;9.17;5.67;;;;;;;0.57;54.68;101643.81;10312615;28;20276;-85
2021/12/21 09:26:23;;;;;;;9.33;5.00;;;;;;;0.67;54.33;101641.41;10316744;28;20197;-84
2021/12/21 09:31:25;;;;;;;7.43;5.20;;;;;;;1.09;53.41;101637.84;10359388;28;20234;-83
2021/12/21 09:36:29;;;;;;;6.40;5.00;;;;;;;0.50;54.40;101640.25;10338440;28;20223;-85
2021/12/21 09:41:31;;;;;;;9.93;5.60;;;;;;;0.94;53.36;101640.13;10326949;28;20241;-84
2021/12/21 09:46:33;;;;;;;9.23;4.97;;;;;;;1.19;52.42;101631.78;10319506;28;20584;-83
2021/12/21 09:51:35;;;;;;;7.17;4.97;;;;;;;1.25;52.99;101641.13;10327689;28;20560;-81
2021/12/21 09:56:38;;;;;;;8.50;5.53;;;;;;;1.21;53.59;101640.72;10327139;28;20254;-82
2021/12/21 10:01:40;;;;;;;8.40;5.77;;;;;;;1.27;53.57;101625.94;10323040;28;20287;-83
2021/12/21 10:06:47;;;;;;;10.07;5.40;;;;;;;1.55;53.72;101642.06;10333140;28;20622;-84
2021/12/21 10:11:51;;;;;;;10.77;6.63;;;;;;;1.77;53.33;101634.16;10322874;28;20264;-82
2021/12/21 10:17:05;;;;;;;9.63;7.00;;;;;;;1.93;53.36;101621.56;10319230;28;20642;-84
2021/12/21 10:22:13;;;;;;;8.70;6.50;;;;;;;1.87;53.77;101623.34;10342996;28;20233;-84
2021/12/21 10:27:20;;;;;;;12.10;7.40;;;;;;;1.93;53.29;101618.78;10319670;28;20264;-81
2021/12/21 10:32:29;;;;;;;10.10;7.10;;;;;;;2.24;53.47;101604.72;10322690;28;20242;-84
2021/12/21 10:37:34;;;;;;;13.97;7.50;;;;;;;2.31;52.57;101602.69;10318746;28;20213;-85
2021/12/21 10:43:09;;;;;;;12.93;7.77;;;;;;;2.54;51.37;101600.03;10345298;28;20355;-83
2021/12/21 10:48:16;;;;;;;11.33;7.70;;;;;;;2.14;53.18;101585.03;10293206;28;20214;-83
2021/12/21 10:53:21;;;;;;;12.80;6.80;;;;;;;2.42;53.16;101582.50;10329392;28;20237;-85
2021/12/21 10:58:27;;;;;;;11.13;7.80;;;;;;;2.37;53.50;101568.50;10339277;28;20281;-84
2021/12/21 11:03:44;;;;;;;11.67;7.73;;;;;;;2.73;52.70;101555.53;10338273;28;20696;-83
2021/12/21 11:08:52;;;;;;;10.33;7.30;;;;;;;2.83;52.00;101550.22;10331398;28;20234;-84
2021/12/21 11:14:14;;;;;;;10.23;7.87;;;;;;;3.17;51.38;101557.72;10335069;28;20271;-85
2021/12/21 11:19:19;;;;;;;12.23;8.27;;;;;;;3.06;52.06;101549.38;10333009;28;20210;-84
2021/12/21 11:24:22;;;;;;;9.13;6.93;;;;;;;3.36;51.91;101547.28;10329247;28;20222;-83
2021/12/21 11:29:25;;;;;;;10.17;6.80;;;;;;;2.95;51.95;101543.59;10357057;28;20201;-82
2021/12/21 11:34:32;;;;;;;10.23;6.77;;;;;;;3.04;52.64;101544.06;10336423;28;20245;-81
2021/12/21 11:39:35;;;;;;;11.80;6.83;;;;;;;2.99;52.11;101538.41;10330389;28;20554;-81
2021/12/21 11:44:50;;;;;;;7.97;6.63;;;;;;;3.41;51.46;101524.34;10329011;28;20210;-83
2021/12/21 11:50:00;;;;;;;9.23;6.80;;;;;;;3.08;52.27;101511.97;10367848;28;20202;-81
2021/12/21 11:55:07;;;;;;;13.13;6.50;;;;;;;3.26;51.84;101516.50;10326040;28;20503;-81
2021/12/21 12:00:12;;;;;;;9.33;6.57;;;;;;;3.56;51.29;101511.63;10341569;28;20205;-81
2021/12/21 12:05:27;;;;;;;11.13;6.73;;;;;;;3.15;51.35;101507.13;10329007;28;20218;-81
2021/12/21 12:10:29;;;;;;;9.70;6.30;;;;;;;3.41;51.66;101502.97;10329074;28;20218;-82
2021/12/21 12:15:41;;;;;;;9.50;6.80;;;;;;;3.04;52.88;101509.91;10313821;28;20705;-82
2021/12/21 12:20:43;;;;;;;9.33;6.50;;;;;;;3.23;51.41;101509.50;10344315;28;20206;-83
2021/12/21 12:26:04;;;;;;;9.33;6.60;;;;;;;3.67;50.85;101498.75;10330379;28;20194;-82
2021/12/21 12:31:06;;;;;;;10.80;7.90;;;;;;;3.25;52.46;101507.34;10309777;28;20503;-82
2021/12/21 12:36:08;;;;;;;11.20;7.40;;;;;;;2.93;53.14;101501.38;10329872;28;20244;-81
2021/12/21 12:41:13;;;;;;;10.60;8.17;;;;;;;3.46;52.29;101491.13;10358889;28;20245;-82
2021/12/21 12:46:23;;;;;;;15.33;9.37;;;;;;;3.55;52.00;101482.13;10350213;28;20240;-82
2021/12/21 12:51:33;;;;;;;16.23;9.93;;;;;;;2.59;54.55;101489.16;10346174;28;20613;-81
2021/12/21 12:56:39;;;;;;;14.67;9.27;;;;;;;3.14;54.30;101487.94;10326209;28;20260;-81
2021/12/21 13:01:44;;;;;;;18.53;11.33;;;;;;;2.96;53.96;101492.53;10320539;28;20225;-82
2021/12/21 13:06:51;;;;;;;17.70;11.00;;;;;;;2.72;54.72;101495.56;10321887;28;20475;-81
2021/12/21 13:11:53;;;;;;;18.17;12.10;;;;;;;2.96;53.73;101489.75;10316719;28;20209;-84
2021/12/21 13:16:58;;;;;;;16.93;12.90;;;;;;;3.35;51.98;101481.69;10329507;28;20269;-82
2021/12/21 13:22:01;;;;;;;15.83;12.80;;;;;;;2.91;52.83;101489.66;10305090;28;20230;-81
2021/12/21 13:27:12;;;;;;;24.50;15.30;;;;;;;2.92;52.66;101490.50;10328085;28;20488;-82
2021/12/21 13:32:17;;;;;;;21.43;14.23;;;;;;;2.98;52.61;101485.88;10356460;28;20551;-81
2021/12/21 13:37:22;;;;;;;15.33;11.03;;;;;;;2.96;53.55;101491.69;10332052;28;20233;-82
2021/12/21 13:42:27;;;;;;;25.17;15.43;;;;;;;2.73;53.45;101505.59;10323661;28;20265;-82
2021/12/21 13:47:32;;;;;;;19.97;13.60;;;;;;;2.65;54.03;101497.63;10307386;28;20256;-83
2021/12/21 13:52:36;;;;;;;19.10;12.43;;;;;;;2.38;54.54;101492.53;10317880;28;20207;-83
2021/12/21 13:57:38;;;;;;;20.73;12.30;;;;;;;1.80;55.16;101501.50;10325521;28;20515;-84
2021/12/21 14:02:49;;;;;;;22.10;13.23;;;;;;;2.05;55.06;101497.75;10331681;28;20300;-82
2021/12/21 14:07:52;;;;;;;17.57;12.50;;;;;;;2.42;53.89;101496.53;10304921;28;20268;-82
2021/12/21 14:13:00;;;;;;;19.40;13.63;;;;;;;2.46;54.04;101494.94;10306176;28;20261;-81
2021/12/21 14:18:21;;;;;;;17.77;13.10;;;;;;;2.34;54.27;101498.78;10312217;28;20650;-82
2021/12/21 14:23:27;;;;;;;19.80;11.97;;;;;;;2.00;55.15;101505.94;10308165;28;20222;-81
2021/12/21 14:28:29;;;;;;;20.33;11.97;;;;;;;2.25;53.56;101503.81;10351691;28;20193;-82
2021/12/21 14:33:45;;;;;;;16.10;11.63;;;;;;;2.28;53.92;101508.91;10334437;28;20222;-82
2021/12/21 14:39:04;;;;;;;19.97;13.43;;;;;;;1.94;54.76;101506.84;10330444;28;20218;-82
2021/12/21 14:44:18;;;;;;;22.47;14.07;;;;;;;1.66;55.37;101516.63;10303690;28;20248;-82
2021/12/21 14:49:31;;;;;;;19.63;12.43;;;;;;;1.74;55.37;101519.09;10321248;28;20603;-81
2021/12/21 14:54:59;;;;;;;18.40;12.77;;;;;;;1.63;55.02;101519.03;10322874;28;20229;-83
2021/12/21 15:00:03;;;;;;;21.50;12.37;;;;;;;1.49;56.00;101523.91;10323321;28;20587;-82
2021/12/21 15:10:42;;;;;;;18.80;11.07;;;;;;;1.22;56.62;101525.31;10318697;28;20213;-82
2021/12/21 15:15:47;;;;;;;17.10;11.30;;;;;;;1.70;55.68;101522.56;10320442;28;20268;-83
2021/12/21 15:20:49;;;;;;;21.80;12.43;;;;;;;1.67;59.55;101526.63;10359277;28;20253;-83
2021/12/21 15:25:52;;;;;;;16.03;11.00;;;;;;;1.37;56.59;101534.91;10336368;28;20206;-83
2021/12/21 15:30:55;;;;;;;21.27;12.83;;;;;;;1.65;56.14;101514.97;10332106;28;20598;-81
2021/12/21 15:35:57;;;;;;;23.43;13.73;;;;;;;1.92;55.22;101514.59;10351608;28;20645;-82
2021/12/21 15:40:59;;;;;;;24.00;13.87;;;;;;;1.55;56.05;101511.88;10328409;28;20256;-80
2021/12/21 15:46:03;;;;;;;19.47;14.13;;;;;;;1.14;57.39;101521.75;10316867;28;20264;-80
2021/12/21 15:51:05;;;;;;;21.23;12.70;;;;;;;1.20;57.98;101521.91;10331605;28;20676;-81
2021/12/21 15:56:10;;;;;;;18.00;12.23;;;;;;;1.49;57.00;101526.69;10328704;28;20226;-80
2021/12/21 16:01:12;;;;;;;15.17;9.97;;;;;;;1.36;57.05;101521.31;10328574;28;20323;-80
2021/12/21 16:06:17;;;;;;;15.60;10.30;;;;;;;1.46;56.02;101527.97;10331466;28;20265;-80
2021/12/21 16:11:19;;;;;;;16.00;9.73;;;;;;;1.33;57.13;101539.22;10304677;28;20279;-80
2021/12/21 16:16:21;;;;;;;18.23;10.23;;;;;;;1.62;56.72;101545.91;10298829;28;20254;-81
2021/12/21 16:21:24;;;;;;;14.97;11.13;;;;;;;1.49;56.19;101537.75;10295689;28;20398;-81
2021/12/21 16:26:47;;;;;;;16.60;12.30;;;;;;;0.97;58.47;101537.28;10323759;28;20230;-81
2021/12/21 16:31:50;;;;;;;19.30;10.13;;;;;;;1.34;57.03;101548.38;10298229;28;20276;-81
2021/12/21 16:36:53;;;;;;;17.97;11.60;;;;;;;1.02;57.79;101551.25;10314479;28;20258;-81
2021/12/21 16:41:55;;;;;;;20.33;12.80;;;;;;;0.87;57.45;101559.13;10306053;28;20245;-83
2021/12/21 16:46:57;;;;;;;19.03;12.50;;;;;;;1.19;57.29;101548.75;10328064;28;21203;-82
2021/12/21 16:51:59;;;;;;;21.93;12.60;;;;;;;1.27;57.14;101555.94;10307382;28;20284;-82
2021/12/21 16:57:02;;;;;;;17.63;11.17;;;;;;;1.27;57.10;101555.94;10299889;28;20329;-80
2021/12/21 17:02:04;;;;;;;25.67;13.20;;;;;;;0.91;58.06;101557.56;10313130;28;20254;-81
2021/12/21 17:07:06;;;;;;;29.93;11.70;;;;;;;1.12;57.76;101548.84;10309031;28;20269;-82
2021/12/21 17:12:09;;;;;;;22.50;12.53;;;;;;;1.17;57.39;101551.75;10317592;28;20261;-82
2021/12/21 17:17:11;;;;;;;22.47;12.87;;;;;;;1.01;58.29;101552.34;10305593;28;20249;-81
2021/12/21 17:22:13;;;;;;;19.83;13.50;;;;;;;1.04;57.44;101554.66;10305863;28;20261;-81
2021/12/21 17:27:16;;;;;;;21.23;13.60;;;;;;;1.33;56.95;101549.44;10310397;28;20288;-80
2021/12/21 17:32:19;;;;;;;23.27;13.03;;;;;;;1.55;55.97;101553.44;10295974;28;20242;-83
2021/12/21 17:37:23;;;;;;;17.17;11.90;;;;;;;1.17;56.89;101554.50;10312439;28;20718;-81
2021/12/21 17:42:26;;;;;;;22.43;13.30;;;;;;;0.89;58.10;101548.63;10317617;28;20229;-82
2021/12/21 17:47:28;;;;;;;18.17;11.67;;;;;;;0.84;58.01;101559.56;10328281;28;21157;-82
2021/12/21 17:52:30;;;;;;;16.87;11.93;;;;;;;0.55;58.14;101566.63;10323189;28;20233;-81
2021/12/21 17:57:33;;;;;;;18.73;12.20;;;;;;;0.56;58.91;101553.63;10343675;28;20252;-81
2021/12/21 18:02:35;;;;;;;19.00;12.53;;;;;;;0.55;58.56;101574.06;10322129;28;20596;-82
2021/12/21 18:07:38;;;;;;;17.53;12.50;;;;;;;0.89;57.28;101562.47;10310261;28;20252;-81
2021/12/21 18:12:41;;;;;;;21.60;11.87;;;;;;;0.98;57.21;101569.44;10325136;28;20282;-82
2021/12/21 18:17:43;;;;;;;17.73;11.20;;;;;;;0.87;57.44;101564.66;10326546;28;20249;-83
2021/12/21 18:22:45;;;;;;;20.30;12.67;;;;;;;0.70;57.79;101560.75;10326295;28;20253;-82
2021/12/21 18:27:49;;;;;;;23.80;13.33;;;;;;;0.82;57.60;101553.41;10329725;28;20233;-83
2021/12/21 18:32:51;;;;;;;23.40;13.23;;;;;;;0.89;57.78;101554.16;10328456;28;20559;-81
2021/12/21 18:37:54;;;;;;;19.67;13.60;;;;;;;0.55;58.33;101555.56;10302996;28;20285;-83
2021/12/21 18:42:59;;;;;;;21.23;12.83;;;;;;;0.62;58.17;101553.56;10327340;28;20233;-82
2021/12/21 18:48:02;;;;;;;21.30;12.67;;;;;;;0.61;57.69;101548.28;10326173;28;20229;-82
2021/12/21 18:53:05;;;;;;;20.27;12.40;;;;;;;0.36;58.87;101549.09;10282651;28;20618;-81
2021/12/21 18:58:07;;;;;;;29.30;12.87;;;;;;;0.94;57.07;101568.19;10323039;28;20281;-80
2021/12/21 19:03:11;;;;;;;25.33;12.93;;;;;;;0.56;58.02;101576.63;10294534;28;20265;-80
2021/12/21 19:08:13;;;;;;;21.30;12.07;;;;;;;0.32;58.36;101575.53;10328873;28;20281;-81
2021/12/21 19:13:16;;;;;;;28.87;12.70;;;;;;;0.53;57.87;101573.44;10312753;28;20299;-85
2021/12/21 19:18:18;;;;;;;17.80;12.10;;;;;;;0.73;58.34;101577.75;10294790;28;20250;-81
2021/12/21 19:23:22;;;;;;;20.67;12.63;;;;;;;0.95;56.46;101575.41;10318250;28;20262;-80
2021/12/21 19:28:25;;;;;;;19.00;13.17;;;;;;;1.00;56.63;101581.13;10288860;28;20579;-81
2021/12/21 19:33:27;;;;;;;19.83;12.53;;;;;;;0.79;57.22;101589.81;10289486;28;20831;-80
2021/12/21 19:38:30;;;;;;;22.33;11.33;;;;;;;0.38;58.37;101580.13;10317660;28;20253;-83
2021/12/21 19:43:32;;;;;;;24.03;12.80;;;;;;;0.80;57.51;101594.28;10307662;28;20297;-80
2021/12/21 19:48:34;;;;;;;21.17;12.23;;;;;;;0.59;57.46;101586.38;10315555;28;20894;-80
2021/12/21 19:53:38;;;;;;;44.90;14.60;;;;;;;0.63;57.78;101593.13;10324823;28;20260;-81
2021/12/21 19:58:41;;;;;;;22.13;12.20;;;;;;;0.74;57.06;101589.66;10309427;28;20258;-81
2021/12/21 20:03:44;;;;;;;20.77;12.73;;;;;;;0.83;56.94;101577.22;10319520;28;20238;-83
2021/12/21 20:08:47;;;;;;;18.37;12.17;;;;;;;0.49;57.83;101580.50;10309960;28;20238;-82
2021/12/21 20:13:53;;;;;;;20.27;13.17;;;;;;;0.62;57.70;101585.94;10328338;28;20238;-80
2021/12/21 20:18:55;;;;;;;17.10;11.87;;;;;;;0.79;56.82;101584.28;10298482;28;20377;-80
2021/12/21 20:23:58;;;;;;;24.63;12.70;;;;;;;0.03;59.12;101576.13;10296354;28;20285;-81
2021/12/21 20:29:00;;;;;;;21.43;12.80;;;;;;;0.17;58.72;101572.22;10320501;28;20253;-81
2021/12/21 20:34:03;;;;;;;35.10;12.93;;;;;;;0.10;59.46;101586.06;10280146;28;20233;-81
2021/12/21 20:39:08;;;;;;;62.93;14.47;;;;;;;-0.03;59.30;101588.09;10294896;28;20653;-80
2021/12/21 20:44:10;;;;;;;30.20;12.73;;;;;;;-0.04;59.18;101587.25;10295643;28;20290;-80
2021/12/21 20:49:13;;;;;;;22.93;11.73;;;;;;;0.04;58.87;101575.91;10316413;28;20238;-81
2021/12/21 20:54:15;;;;;;;25.07;12.50;;;;;;;-0.12;59.84;101565.38;10310704;28;20285;-82
2021/12/21 20:59:17;;;;;;;26.33;14.00;;;;;;;0.22;58.76;101555.84;10298679;28;20638;-80
2021/12/21 21:04:19;;;;;;;45.30;14.20;;;;;;;0.25;58.52;101560.88;10308090;28;20727;-80
2021/12/21 21:09:22;;;;;;;23.73;12.07;;;;;;;0.16;58.64;101562.25;10319730;28;20226;-80
2021/12/21 21:14:24;;;;;;;49.43;14.37;;;;;;;0.41;57.32;101560.34;10315165;28;20253;-80
2021/12/21 21:19:29;;;;;;;37.60;14.40;;;;;;;-0.05;59.19;101554.31;10336467;28;20237;-81
2021/12/21 21:24:31;;;;;;;42.57;13.80;;;;;;;-0.11;58.99;101558.78;10362446;28;20229;-79
2021/12/21 21:29:33;;;;;;;35.67;13.73;;;;;;;-0.15;58.83;101564.94;10335005;28;20221;-82
2021/12/21 21:34:37;;;;;;;39.10;14.17;;;;;;;0.25;57.89;101558.13;10334382;28;20198;-80
2021/12/21 21:39:41;;;;;;;24.27;12.40;;;;;;;0.48;56.91;101568.59;10308493;28;20226;-80
2021/12/21 21:44:44;;;;;;;21.23;13.03;;;;;;;0.39;57.10;101565.25;10311632;28;20202;-80
2021/12/21 21:49:46;;;;;;;18.77;12.80;;;;;;;0.50;56.56;101571.13;10294116;28;20203;-81
2021/12/21 21:54:48;;;;;;;18.07;12.57;;;;;;;0.54;56.49;101575.97;10327904;28;20264;-80
2021/12/21 21:59:51;;;;;;;17.97;12.70;;;;;;;0.65;55.69;101585.47;10313905;28;20627;-82
2021/12/21 22:04:53;;;;;;;18.93;12.63;;;;;;;0.06;57.19;101581.22;10330269;28;20273;-81
2021/12/21 22:09:55;;;;;;;17.60;11.87;;;;;;;-0.05;57.30;101588.31;10332401;28;20210;-79
2021/12/21 22:14:57;;;;;;;20.47;12.23;;;;;;;0.51;55.92;101589.41;10329556;28;20508;-82
2021/12/21 22:19:59;;;;;;;30.30;13.20;;;;;;;0.01;57.50;101583.78;10314715;28;20249;-79
2021/12/21 22:25:02;;;;;;;19.40;11.93;;;;;;;0.33;56.38;101590.19;10308851;28;20230;-81
2021/12/21 22:30:04;;;;;;;17.33;11.87;;;;;;;0.31;55.83;101587.66;10291971;28;20191;-82
2021/12/21 22:35:07;;;;;;;18.63;12.23;;;;;;;0.34;55.81;101595.50;10318546;28;20237;-81
2021/12/21 22:40:09;;;;;;;15.53;10.70;;;;;;;0.26;55.37;101592.13;10330349;28;20206;-81
2021/12/21 22:45:13;;;;;;;18.97;11.87;;;;;;;0.22;55.60;101604.72;10339580;28;20210;-81
2021/12/21 22:50:15;;;;;;;13.73;10.30;;;;;;;0.20;54.97;101606.88;10329103;28;20233;-81
2021/12/21 22:55:35;;;;;;;15.00;10.37;;;;;;;-0.11;56.16;101603.00;10293982;28;20626;-81
2021/12/21 23:00:57;;;;;;;16.73;11.00;;;;;;;-0.49;56.55;101600.16;10308779;28;20218;-82
2021/12/21 23:06:01;;;;;;;15.50;10.67;;;;;;;-0.21;56.16;101602.59;10320843;28;20225;-81
2021/12/21 23:11:05;;;;;;;16.17;10.93;;;;;;;-0.32;55.69;101601.38;10322844;28;20547;-81
2021/12/21 23:16:07;;;;;;;15.47;10.43;;;;;;;-0.50;56.61;101603.13;10346491;28;20270;-82
2021/12/21 23:21:10;;;;;;;17.40;11.43;;;;;;;-0.36;55.81;101591.81;10309385;28;20280;-82
2021/12/21 23:26:15;;;;;;;15.23;10.63;;;;;;;-0.46;55.67;101587.81;10335338;28;20477;-82
2021/12/21 23:31:29;;;;;;;17.53;11.17;;;;;;;-0.28;54.87;101582.41;10327071;28;20233;-81
2021/12/21 23:36:31;;;;;;;17.47;11.00;;;;;;;-0.43;54.87;101587.41;10333517;28;20249;-82
2021/12/21 23:41:33;;;;;;;17.80;10.37;;;;;;;-0.25;54.16;101582.84;10328171;28;20197;-81
2021/12/21 23:46:36;;;;;;;15.73;10.87;;;;;;;-0.64;53.95;101583.00;10292445;28;20280;-81
2021/12/21 23:51:39;;;;;;;12.40;9.77;;;;;;;-0.50;53.85;101573.59;10288430;28;20322;-81
2021/12/21 23:56:41;;;;;;;15.20;10.17;;;;;;;-0.43;54.20;101570.84;10294150;28;20241;-80
